»·PEaware :: N210AR L90-KMYF

N210AR :: L90-KMYF

FLIGHT INFORMATION

Flight Status: Arrived
Operator: Privately registered:
United States
More flights under this callsign
Pilot: Max S. (16657)
Aircraft: CESSNA 172 SKYHAWK
(C172)
More flights by this aircraft type
Origin: L90 Ocotillo
United States
Destination: KMYF Montgomery
United States
More flights between these airports :: More routes between these airports
Route:
File this flight plan on PilotEdge
Remarks:
Altitude:
(Current/Filed)
6,500ft
Speed:
(Current/Filed)
100kts
Departed: 27-Apr-20 09:08 AM
Arrived: 27-Apr-20 09:45 AM
Distance/Time
Traveled:
55nm/0:37
Distance/Time
To Go:
Arrived

Flight Plot

Page will automatically refresh every two minutes.

Flight plan parsing failed; only flown route is shown


Map Options




Map Legend


Flown Route
Filed Route
Departure Airport
Arrival Airport
Navaid (VOR, NDB)
Fix

Horizontal Profiles

Position Reports

Time Latitude Longitude Heading Altitude Ground
Speed
27-Apr-20 08:56 33.143717 -116.128481 4 164ft 0kts
27-Apr-20 08:57 33.143717 -116.128481 4 164ft 0kts
27-Apr-20 08:58 33.143717 -116.128481 3 164ft 0kts
27-Apr-20 08:59 33.143717 -116.128481 3 164ft 0kts
27-Apr-20 09:00 33.143717 -116.128481 3 164ft 0kts
27-Apr-20 09:01 33.143717 -116.128481 3 164ft 0kts
27-Apr-20 09:02 33.143717 -116.128481 3 164ft 0kts
27-Apr-20 09:03 33.143717 -116.128481 3 164ft 0kts
27-Apr-20 09:04 33.143717 -116.128481 3 164ft 0kts
27-Apr-20 09:05 33.143717 -116.128481 3 164ft 0kts
27-Apr-20 09:06 33.143749 -116.128475 14 164ft 0kts
27-Apr-20 09:07 33.145878 -116.129845 327 164ft 55kts
27-Apr-20 09:08 33.159719 -116.141337 265 984ft 65kts
27-Apr-20 09:09 33.153479 -116.161755 249 1777ft 71kts
27-Apr-20 09:10 33.145276 -116.183738 238 2554ft 75kts
27-Apr-20 09:11 33.132686 -116.204479 241 3261ft 78kts
27-Apr-20 09:12 33.126651 -116.229755 251 3913ft 79kts
27-Apr-20 09:13 33.118913 -116.253992 239 4567ft 77kts
27-Apr-20 09:14 33.107616 -116.276598 242 5133ft 81kts
27-Apr-20 09:15 33.098244 -116.300699 244 5713ft 79kts
27-Apr-20 09:16 33.089220 -116.324807 246 6254ft 80kts
27-Apr-20 09:17 33.080607 -116.351149 251 6560ft 97kts
27-Apr-20 09:18 33.074284 -116.383839 262 6547ft 108kts
27-Apr-20 09:19 33.071870 -116.419580 267 6516ft 103kts
27-Apr-20 09:20 33.069477 -116.454572 267 6477ft 107kts
27-Apr-20 09:21 33.066443 -116.489968 265 6453ft 104kts
27-Apr-20 09:22 33.056592 -116.522466 247 6498ft 105kts
27-Apr-20 09:23 33.040440 -116.551487 237 6553ft 107kts
27-Apr-20 09:24 33.023104 -116.580490 235 6566ft 108kts
27-Apr-20 09:25 33.002998 -116.607565 225 6555ft 111kts
27-Apr-20 09:26 32.978208 -116.630482 217 6502ft 111kts
27-Apr-20 09:27 32.951765 -116.651217 219 6421ft 113kts
27-Apr-20 09:28 32.927942 -116.673972 220 6471ft 109kts
27-Apr-20 09:29 32.903544 -116.695791 223 6348ft 118kts
27-Apr-20 09:30 32.883451 -116.724977 240 5274ft 110kts
27-Apr-20 09:32 32.872432 -116.756776 257 4421ft 98kts
27-Apr-20 09:33 32.866129 -116.788719 258 4590ft 97kts
27-Apr-20 09:34 32.858600 -116.823002 257 4528ft 114kts
27-Apr-20 09:35 32.850222 -116.859256 257 4331ft 106kts
27-Apr-20 09:36 32.842645 -116.893410 257 4534ft 115kts
27-Apr-20 09:37 32.833841 -116.930781 256 4361ft 113kts
27-Apr-20 09:38 32.825102 -116.964409 256 4440ft 111kts
27-Apr-20 09:39 32.817815 -116.997658 273 4091ft 106kts
27-Apr-20 09:40 32.821888 -117.028065 297 3453ft 104kts
27-Apr-20 09:41 32.832907 -117.059284 276 2257ft 113kts
27-Apr-20 09:42 32.829304 -117.089388 259 1428ft 105kts
27-Apr-20 09:43 32.825488 -117.110329 236 1377ft 79kts
27-Apr-20 09:44 32.810839 -117.122513 247 747ft 78kts
27-Apr-20 09:45 32.815203 -117.137387 240 413ft 6kts
27-Apr-20 09:46 32.814630 -117.137852 212 413ft 0kts
27-Apr-20 09:47 32.813504 -117.138506 243 413ft 12kts
27-Apr-20 09:47 32.814656 -117.141576 294 413ft 19kts
27-Apr-20 09:49 32.813839 -117.143511 158 413ft 8kts
27-Apr-20 09:49 32.814460 -117.141531 125 413ft 8kts
27-Apr-20 09:50 32.813058 -117.140452 81 413ft 12kts
27-Apr-20 09:52 32.813323 -117.140108 5 413ft 0kts
27-Apr-20 09:52 32.813323 -117.140108 5 413ft 0kts

Navigation Log

Ident Type
Flight plan parsing failed, navigation log unavailable